sensor_id;sensor_type;location;lat;lon;timestamp;temperature;humidity
19483;DHT22;9882;51.166;6.992;2023-11-19T00:00:28;10.80;99.90
19483;DHT22;9882;51.166;6.992;2023-11-19T00:02:57;10.80;99.90
19483;DHT22;9882;51.166;6.992;2023-11-19T00:05:27;10.70;99.90
19483;DHT22;9882;51.166;6.992;2023-11-19T00:07:57;10.90;99.90
19483;DHT22;9882;51.166;6.992;2023-11-19T00:10:26;10.70;99.90
19483;DHT22;9882;51.166;6.992;2023-11-19T00:12:55;10.80;99.90
19483;DHT22;9882;51.166;6.992;2023-11-19T00:15:25;11.00;99.90
19483;DHT22;9882;51.166;6.992;2023-11-19T00:17:54;10.90;99.90
19483;DHT22;9882;51.166;6.992;2023-11-19T00:20:23;11.00;99.90
19483;DHT22;9882;51.166;6.992;2023-11-19T00:22:54;10.90;99.90
19483;DHT22;9882;51.166;6.992;2023-11-19T00:25:23;10.90;99.90
19483;DHT22;9882;51.166;6.992;2023-11-19T00:27:52;10.80;99.90
19483;DHT22;9882;51.166;6.992;2023-11-19T00:30:23;11.00;99.90
19483;DHT22;9882;51.166;6.992;2023-11-19T00:32:53;10.80;99.90
19483;DHT22;9882;51.166;6.992;2023-11-19T00:35:22;11.00;99.90
19483;DHT22;9882;51.166;6.992;2023-11-19T00:37:51;11.30;99.90
19483;DHT22;9882;51.166;6.992;2023-11-19T00:40:23;11.20;99.90
19483;DHT22;9882;51.166;6.992;2023-11-19T00:42:52;11.40;99.90
19483;DHT22;9882;51.166;6.992;2023-11-19T00:45:21;11.30;99.90
19483;DHT22;9882;51.166;6.992;2023-11-19T00:47:51;11.40;99.90
19483;DHT22;9882;51.166;6.992;2023-11-19T00:50:20;11.30;99.90
19483;DHT22;9882;51.166;6.992;2023-11-19T00:52:50;11.40;99.90
19483;DHT22;9882;51.166;6.992;2023-11-19T00:55:19;11.30;99.90
19483;DHT22;9882;51.166;6.992;2023-11-19T00:57:50;11.30;99.90
19483;DHT22;9882;51.166;6.992;2023-11-19T01:00:19;11.40;99.90
19483;DHT22;9882;51.166;6.992;2023-11-19T01:02:51;11.40;99.90
19483;DHT22;9882;51.166;6.992;2023-11-19T01:05:20;11.60;99.90
19483;DHT22;9882;51.166;6.992;2023-11-19T01:07:50;11.40;99.90
19483;DHT22;9882;51.166;6.992;2023-11-19T01:10:21;11.60;99.90
19483;DHT22;9882;51.166;6.992;2023-11-19T01:12:51;11.70;99.90
19483;DHT22;9882;51.166;6.992;2023-11-19T01:15:21;11.40;99.90
19483;DHT22;9882;51.166;6.992;2023-11-19T01:17:50;11.50;99.90
19483;DHT22;9882;51.166;6.992;2023-11-19T01:20:20;11.70;99.90
19483;DHT22;9882;51.166;6.992;2023-11-19T01:22:49;11.80;99.90
19483;DHT22;9882;51.166;6.992;2023-11-19T01:25:18;11.90;99.90
19483;DHT22;9882;51.166;6.992;2023-11-19T01:27:47;12.10;99.90
19483;DHT22;9882;51.166;6.992;2023-11-19T01:30:18;12.30;99.90
19483;DHT22;9882;51.166;6.992;2023-11-19T01:32:49;12.30;99.90
19483;DHT22;9882;51.166;6.992;2023-11-19T01:35:18;12.50;99.90
19483;DHT22;9882;51.166;6.992;2023-11-19T01:37:47;12.50;99.90
19483;DHT22;9882;51.166;6.992;2023-11-19T01:40:20;12.60;99.90
19483;DHT22;9882;51.166;6.992;2023-11-19T01:42:50;12.60;99.90
19483;DHT22;9882;51.166;6.992;2023-11-19T01:45:28;12.80;99.90
19483;DHT22;9882;51.166;6.992;2023-11-19T01:48:00;12.90;99.90
19483;DHT22;9882;51.166;6.992;2023-11-19T01:50:31;13.00;99.90
19483;DHT22;9882;51.166;6.992;2023-11-19T01:53:01;13.10;99.90
19483;DHT22;9882;51.166;6.992;2023-11-19T01:55:30;13.10;99.90
19483;DHT22;9882;51.166;6.992;2023-11-19T01:58:02;13.40;99.90
19483;DHT22;9882;51.166;6.992;2023-11-19T02:00:33;13.20;99.90
19483;DHT22;9882;51.166;6.992;2023-11-19T02:03:02;13.40;99.90
19483;DHT22;9882;51.166;6.992;2023-11-19T02:05:35;13.50;99.90
19483;DHT22;9882;51.166;6.992;2023-11-19T02:08:03;13.60;99.90
19483;DHT22;9882;51.166;6.992;2023-11-19T02:10:32;13.60;99.90
19483;DHT22;9882;51.166;6.992;2023-11-19T02:13:02;13.80;99.90
19483;DHT22;9882;51.166;6.992;2023-11-19T02:15:34;13.70;99.90
19483;DHT22;9882;51.166;6.992;2023-11-19T02:18:21;14.10;99.90
19483;DHT22;9882;51.166;6.992;2023-11-19T02:20:50;14.20;99.90
19483;DHT22;9882;51.166;6.992;2023-11-19T02:23:21;14.10;99.90
19483;DHT22;9882;51.166;6.992;2023-11-19T02:26:03;14.20;99.90
19483;DHT22;9882;51.166;6.992;2023-11-19T02:28:36;14.20;99.90
19483;DHT22;9882;51.166;6.992;2023-11-19T02:31:06;14.40;99.90
19483;DHT22;9882;51.166;6.992;2023-11-19T02:33:37;14.50;99.90
19483;DHT22;9882;51.166;6.992;2023-11-19T02:36:08;14.30;99.90
19483;DHT22;9882;51.166;6.992;2023-11-19T02:38:37;14.30;99.90
19483;DHT22;9882;51.166;6.992;2023-11-19T02:41:06;14.40;99.90
19483;DHT22;9882;51.166;6.992;2023-11-19T02:43:38;14.20;99.90
19483;DHT22;9882;51.166;6.992;2023-11-19T02:46:07;14.30;99.90
19483;DHT22;9882;51.166;6.992;2023-11-19T02:48:39;14.40;99.90
19483;DHT22;9882;51.166;6.992;2023-11-19T02:51:09;14.50;99.90
19483;DHT22;9882;51.166;6.992;2023-11-19T02:53:38;14.50;99.90
19483;DHT22;9882;51.166;6.992;2023-11-19T02:56:08;14.40;99.90
19483;DHT22;9882;51.166;6.992;2023-11-19T02:58:48;14.50;99.90
19483;DHT22;9882;51.166;6.992;2023-11-19T03:01:22;14.50;99.90
19483;DHT22;9882;51.166;6.992;2023-11-19T03:03:58;14.60;99.90
19483;DHT22;9882;51.166;6.992;2023-11-19T03:06:28;14.60;99.90
19483;DHT22;9882;51.166;6.992;2023-11-19T03:08:57;14.60;99.90
19483;DHT22;9882;51.166;6.992;2023-11-19T03:11:33;14.60;99.90
19483;DHT22;9882;51.166;6.992;2023-11-19T03:14:04;14.60;99.90
19483;DHT22;9882;51.166;6.992;2023-11-19T03:16:33;14.70;99.90
19483;DHT22;9882;51.166;6.992;2023-11-19T03:19:02;14.70;99.90
19483;DHT22;9882;51.166;6.992;2023-11-19T03:21:32;14.70;99.90
19483;DHT22;9882;51.166;6.992;2023-11-19T03:24:01;14.60;99.90
19483;DHT22;9882;51.166;6.992;2023-11-19T03:26:30;14.50;99.90
19483;DHT22;9882;51.166;6.992;2023-11-19T03:29:01;14.50;99.90
19483;DHT22;9882;51.166;6.992;2023-11-19T03:31:31;14.40;99.90
19483;DHT22;9882;51.166;6.992;2023-11-19T03:34:00;14.40;99.90
19483;DHT22;9882;51.166;6.992;2023-11-19T03:36:33;14.40;99.90
19483;DHT22;9882;51.166;6.992;2023-11-19T03:39:02;14.30;99.90
19483;DHT22;9882;51.166;6.992;2023-11-19T03:41:31;14.20;99.90
19483;DHT22;9882;51.166;6.992;2023-11-19T03:44:03;14.30;99.90
19483;DHT22;9882;51.166;6.992;2023-11-19T03:46:34;14.10;99.90
19483;DHT22;9882;51.166;6.992;2023-11-19T03:49:03;14.00;99.90
19483;DHT22;9882;51.166;6.992;2023-11-19T03:51:34;14.10;99.90
19483;DHT22;9882;51.166;6.992;2023-11-19T03:54:03;13.90;99.90
19483;DHT22;9882;51.166;6.992;2023-11-19T03:56:33;14.00;99.90
19483;DHT22;9882;51.166;6.992;2023-11-19T03:59:02;14.10;99.90
19483;DHT22;9882;51.166;6.992;2023-11-19T04:01:31;13.90;99.90
19483;DHT22;9882;51.166;6.992;2023-11-19T04:04:02;13.60;99.90
19483;DHT22;9882;51.166;6.992;2023-11-19T04:06:31;13.60;99.90
19483;DHT22;9882;51.166;6.992;2023-11-19T04:09:00;13.80;99.90
19483;DHT22;9882;51.166;6.992;2023-11-19T04:11:29;13.70;99.90
19483;DHT22;9882;51.166;6.992;2023-11-19T04:13:58;13.80;99.90
19483;DHT22;9882;51.166;6.992;2023-11-19T04:16:27;13.70;99.90
19483;DHT22;9882;51.166;6.992;2023-11-19T04:18:59;13.60;99.90
19483;DHT22;9882;51.166;6.992;2023-11-19T04:21:30;13.40;99.90
19483;DHT22;9882;51.166;6.992;2023-11-19T04:23:59;13.40;99.90
19483;DHT22;9882;51.166;6.992;2023-11-19T04:26:28;13.30;99.90
19483;DHT22;9882;51.166;6.992;2023-11-19T04:28:58;13.20;99.90
19483;DHT22;9882;51.166;6.992;2023-11-19T04:31:29;13.10;99.90
19483;DHT22;9882;51.166;6.992;2023-11-19T04:33:59;13.20;99.90
19483;DHT22;9882;51.166;6.992;2023-11-19T04:36:29;13.20;99.90
19483;DHT22;9882;51.166;6.992;2023-11-19T04:38:59;13.10;99.90
19483;DHT22;9882;51.166;6.992;2023-11-19T04:41:28;13.10;99.90
19483;DHT22;9882;51.166;6.992;2023-11-19T04:43:57;13.00;99.90
19483;DHT22;9882;51.166;6.992;2023-11-19T04:46:26;12.90;99.90
19483;DHT22;9882;51.166;6.992;2023-11-19T04:48:55;13.00;99.90
19483;DHT22;9882;51.166;6.992;2023-11-19T04:51:25;13.00;99.90
19483;DHT22;9882;51.166;6.992;2023-11-19T04:53:55;13.00;99.90
19483;DHT22;9882;51.166;6.992;2023-11-19T04:56:25;13.00;99.90
19483;DHT22;9882;51.166;6.992;2023-11-19T04:58:53;13.10;99.90
19483;DHT22;9882;51.166;6.992;2023-11-19T05:01:23;13.00;99.90
19483;DHT22;9882;51.166;6.992;2023-11-19T05:03:52;13.10;99.90
19483;DHT22;9882;51.166;6.992;2023-11-19T05:06:21;13.10;99.90
19483;DHT22;9882;51.166;6.992;2023-11-19T05:08:50;13.10;99.90
19483;DHT22;9882;51.166;6.992;2023-11-19T05:11:20;13.10;99.90
19483;DHT22;9882;51.166;6.992;2023-11-19T05:13:49;13.00;99.90
19483;DHT22;9882;51.166;6.992;2023-11-19T05:16:18;12.90;99.90
19483;DHT22;9882;51.166;6.992;2023-11-19T05:18:48;13.00;99.90
19483;DHT22;9882;51.166;6.992;2023-11-19T05:21:18;13.00;99.90
19483;DHT22;9882;51.166;6.992;2023-11-19T05:23:47;13.00;99.90
19483;DHT22;9882;51.166;6.992;2023-11-19T05:26:22;13.00;99.90
19483;DHT22;9882;51.166;6.992;2023-11-19T05:28:51;12.90;99.90
19483;DHT22;9882;51.166;6.992;2023-11-19T05:31:20;13.00;99.90
19483;DHT22;9882;51.166;6.992;2023-11-19T05:33:49;12.90;99.90
19483;DHT22;9882;51.166;6.992;2023-11-19T05:36:18;12.90;99.90
19483;DHT22;9882;51.166;6.992;2023-11-19T05:38:47;12.80;99.90
19483;DHT22;9882;51.166;6.992;2023-11-19T05:41:16;12.80;99.90
19483;DHT22;9882;51.166;6.992;2023-11-19T05:43:46;12.80;99.90
19483;DHT22;9882;51.166;6.992;2023-11-19T05:46:15;12.80;99.90
19483;DHT22;9882;51.166;6.992;2023-11-19T05:48:46;12.70;99.90
19483;DHT22;9882;51.166;6.992;2023-11-19T05:51:15;12.60;99.90
19483;DHT22;9882;51.166;6.992;2023-11-19T05:53:45;12.70;99.90
19483;DHT22;9882;51.166;6.992;2023-11-19T05:56:14;12.70;99.90
19483;DHT22;9882;51.166;6.992;2023-11-19T05:58:50;12.70;99.90
19483;DHT22;9882;51.166;6.992;2023-11-19T06:01:21;12.60;99.90
19483;DHT22;9882;51.166;6.992;2023-11-19T06:03:50;12.50;99.90
19483;DHT22;9882;51.166;6.992;2023-11-19T06:06:19;12.60;99.90
19483;DHT22;9882;51.166;6.992;2023-11-19T06:08:48;12.50;99.90
19483;DHT22;9882;51.166;6.992;2023-11-19T06:11:18;12.50;99.90
19483;DHT22;9882;51.166;6.992;2023-11-19T06:13:49;12.50;99.90
19483;DHT22;9882;51.166;6.992;2023-11-19T06:16:19;12.40;99.90
19483;DHT22;9882;51.166;6.992;2023-11-19T06:18:48;12.40;99.90
19483;DHT22;9882;51.166;6.992;2023-11-19T06:21:17;12.30;99.90
19483;DHT22;9882;51.166;6.992;2023-11-19T06:23:46;12.40;99.90
19483;DHT22;9882;51.166;6.992;2023-11-19T06:26:15;12.30;99.90
19483;DHT22;9882;51.166;6.992;2023-11-19T06:28:43;12.40;99.90
19483;DHT22;9882;51.166;6.992;2023-11-19T06:31:15;12.20;99.90
19483;DHT22;9882;51.166;6.992;2023-11-19T06:33:44;12.20;99.90
19483;DHT22;9882;51.166;6.992;2023-11-19T06:36:14;12.20;99.90
19483;DHT22;9882;51.166;6.992;2023-11-19T06:38:45;12.20;99.90
19483;DHT22;9882;51.166;6.992;2023-11-19T06:41:14;12.10;99.90
19483;DHT22;9882;51.166;6.992;2023-11-19T06:43:43;12.10;99.90
19483;DHT22;9882;51.166;6.992;2023-11-19T06:46:16;12.00;99.90
19483;DHT22;9882;51.166;6.992;2023-11-19T06:48:48;11.90;99.90
19483;DHT22;9882;51.166;6.992;2023-11-19T06:51:17;12.00;99.90
19483;DHT22;9882;51.166;6.992;2023-11-19T06:53:46;11.90;99.90
19483;DHT22;9882;51.166;6.992;2023-11-19T06:56:19;11.90;99.90
19483;DHT22;9882;51.166;6.992;2023-11-19T06:58:48;11.90;99.90
19483;DHT22;9882;51.166;6.992;2023-11-19T07:01:20;11.80;99.90
19483;DHT22;9882;51.166;6.992;2023-11-19T07:03:49;11.80;99.90
19483;DHT22;9882;51.166;6.992;2023-11-19T07:06:18;11.70;99.90
19483;DHT22;9882;51.166;6.992;2023-11-19T07:09:00;11.70;99.90
19483;DHT22;9882;51.166;6.992;2023-11-19T07:11:37;11.70;99.90
19483;DHT22;9882;51.166;6.992;2023-11-19T07:14:07;11.60;99.90
19483;DHT22;9882;51.166;6.992;2023-11-19T07:16:38;11.70;99.90
19483;DHT22;9882;51.166;6.992;2023-11-19T07:19:07;11.60;99.90
19483;DHT22;9882;51.166;6.992;2023-11-19T07:21:36;11.60;99.90
19483;DHT22;9882;51.166;6.992;2023-11-19T07:24:07;11.60;99.90
19483;DHT22;9882;51.166;6.992;2023-11-19T07:26:39;11.60;99.90
19483;DHT22;9882;51.166;6.992;2023-11-19T07:29:10;11.60;99.90
19483;DHT22;9882;51.166;6.992;2023-11-19T07:32:00;11.60;99.90
19483;DHT22;9882;51.166;6.992;2023-11-19T07:34:29;11.60;99.90
19483;DHT22;9882;51.166;6.992;2023-11-19T07:36:58;11.50;99.90
19483;DHT22;9882;51.166;6.992;2023-11-19T07:39:29;11.60;99.90
19483;DHT22;9882;51.166;6.992;2023-11-19T07:41:58;11.50;99.90
19483;DHT22;9882;51.166;6.992;2023-11-19T07:44:27;11.50;99.90
19483;DHT22;9882;51.166;6.992;2023-11-19T07:46:57;11.60;99.90
19483;DHT22;9882;51.166;6.992;2023-11-19T07:49:27;11.50;99.90
19483;DHT22;9882;51.166;6.992;2023-11-19T07:51:56;11.60;99.90
19483;DHT22;9882;51.166;6.992;2023-11-19T07:54:25;11.50;99.90
19483;DHT22;9882;51.166;6.992;2023-11-19T07:56:54;11.40;99.90
19483;DHT22;9882;51.166;6.992;2023-11-19T07:59:23;11.50;99.90
19483;DHT22;9882;51.166;6.992;2023-11-19T08:01:56;11.50;99.90
19483;DHT22;9882;51.166;6.992;2023-11-19T08:04:28;11.60;99.90
19483;DHT22;9882;51.166;6.992;2023-11-19T08:06:57;11.60;99.90
19483;DHT22;9882;51.166;6.992;2023-11-19T08:09:27;11.70;99.90
19483;DHT22;9882;51.166;6.992;2023-11-19T08:11:56;11.50;99.90
19483;DHT22;9882;51.166;6.992;2023-11-19T08:14:26;11.50;99.90
19483;DHT22;9882;51.166;6.992;2023-11-19T08:16:55;11.60;99.90
19483;DHT22;9882;51.166;6.992;2023-11-19T08:19:25;11.70;99.90
19483;DHT22;9882;51.166;6.992;2023-11-19T08:21:56;11.60;99.90
19483;DHT22;9882;51.166;6.992;2023-11-19T08:24:25;11.60;99.90
19483;DHT22;9882;51.166;6.992;2023-11-19T08:26:58;11.80;99.90
19483;DHT22;9882;51.166;6.992;2023-11-19T08:29:29;11.80;99.90
19483;DHT22;9882;51.166;6.992;2023-11-19T08:32:07;11.90;99.90
19483;DHT22;9882;51.166;6.992;2023-11-19T08:34:36;11.90;99.90
19483;DHT22;9882;51.166;6.992;2023-11-19T08:37:07;12.00;99.90
19483;DHT22;9882;51.166;6.992;2023-11-19T08:39:50;11.90;99.90
19483;DHT22;9882;51.166;6.992;2023-11-19T08:42:20;12.00;99.90
19483;DHT22;9882;51.166;6.992;2023-11-19T08:44:50;11.90;99.90
19483;DHT22;9882;51.166;6.992;2023-11-19T08:47:22;12.00;99.90
19483;DHT22;9882;51.166;6.992;2023-11-19T08:49:54;12.00;99.90
19483;DHT22;9882;51.166;6.992;2023-11-19T08:52:31;12.10;99.90
19483;DHT22;9882;51.166;6.992;2023-11-19T08:55:01;12.00;99.90
19483;DHT22;9882;51.166;6.992;2023-11-19T08:57:32;12.00;99.90
19483;DHT22;9882;51.166;6.992;2023-11-19T09:00:02;11.90;99.90
19483;DHT22;9882;51.166;6.992;2023-11-19T09:02:35;12.10;99.90
19483;DHT22;9882;51.166;6.992;2023-11-19T09:05:06;12.10;99.90
19483;DHT22;9882;51.166;6.992;2023-11-19T09:07:37;12.10;99.90
19483;DHT22;9882;51.166;6.992;2023-11-19T09:10:07;12.20;99.90
19483;DHT22;9882;51.166;6.992;2023-11-19T09:12:36;12.20;99.90
19483;DHT22;9882;51.166;6.992;2023-11-19T09:15:05;12.30;99.90
19483;DHT22;9882;51.166;6.992;2023-11-19T09:17:34;12.20;99.90
19483;DHT22;9882;51.166;6.992;2023-11-19T09:20:04;12.10;99.90
19483;DHT22;9882;51.166;6.992;2023-11-19T09:22:33;12.00;99.90
19483;DHT22;9882;51.166;6.992;2023-11-19T09:25:05;12.00;99.90
19483;DHT22;9882;51.166;6.992;2023-11-19T09:27:34;12.10;99.90
19483;DHT22;9882;51.166;6.992;2023-11-19T09:30:04;12.30;99.90
19483;DHT22;9882;51.166;6.992;2023-11-19T09:32:35;12.30;99.90
19483;DHT22;9882;51.166;6.992;2023-11-19T09:35:05;12.10;99.90
19483;DHT22;9882;51.166;6.992;2023-11-19T09:37:34;12.30;99.90
19483;DHT22;9882;51.166;6.992;2023-11-19T09:40:07;12.10;99.90
19483;DHT22;9882;51.166;6.992;2023-11-19T09:42:43;12.20;99.90
19483;DHT22;9882;51.166;6.992;2023-11-19T09:45:14;12.30;99.90
19483;DHT22;9882;51.166;6.992;2023-11-19T09:47:44;12.30;99.90
19483;DHT22;9882;51.166;6.992;2023-11-19T09:50:16;12.30;99.90
19483;DHT22;9882;51.166;6.992;2023-11-19T09:52:46;12.40;99.90
19483;DHT22;9882;51.166;6.992;2023-11-19T09:55:17;12.30;99.90
19483;DHT22;9882;51.166;6.992;2023-11-19T09:57:48;12.20;99.90
19483;DHT22;9882;51.166;6.992;2023-11-19T10:00:18;12.30;99.90
19483;DHT22;9882;51.166;6.992;2023-11-19T10:02:49;12.30;99.90
19483;DHT22;9882;51.166;6.992;2023-11-19T10:05:20;12.10;99.90
19483;DHT22;9882;51.166;6.992;2023-11-19T10:07:50;12.20;99.90
19483;DHT22;9882;51.166;6.992;2023-11-19T10:10:21;12.30;99.90
19483;DHT22;9882;51.166;6.992;2023-11-19T10:12:51;12.30;99.90
19483;DHT22;9882;51.166;6.992;2023-11-19T10:15:24;12.50;99.90
19483;DHT22;9882;51.166;6.992;2023-11-19T10:17:55;12.50;99.90
19483;DHT22;9882;51.166;6.992;2023-11-19T10:20:25;12.60;99.90
19483;DHT22;9882;51.166;6.992;2023-11-19T10:22:54;12.50;99.90
19483;DHT22;9882;51.166;6.992;2023-11-19T10:25:30;12.50;99.90
19483;DHT22;9882;51.166;6.992;2023-11-19T10:27:59;12.50;99.90
19483;DHT22;9882;51.166;6.992;2023-11-19T10:30:30;12.60;99.90
19483;DHT22;9882;51.166;6.992;2023-11-19T10:33:05;12.50;99.90
19483;DHT22;9882;51.166;6.992;2023-11-19T10:35:35;12.50;99.90
19483;DHT22;9882;51.166;6.992;2023-11-19T10:38:14;12.70;99.90
19483;DHT22;9882;51.166;6.992;2023-11-19T10:40:45;12.60;99.90
19483;DHT22;9882;51.166;6.992;2023-11-19T10:43:14;12.80;99.90
19483;DHT22;9882;51.166;6.992;2023-11-19T10:45:46;12.70;99.90
19483;DHT22;9882;51.166;6.992;2023-11-19T10:48:15;12.60;99.90
19483;DHT22;9882;51.166;6.992;2023-11-19T10:50:53;12.80;99.90
19483;DHT22;9882;51.166;6.992;2023-11-19T10:53:23;12.90;99.90
19483;DHT22;9882;51.166;6.992;2023-11-19T10:55:57;12.60;99.90
19483;DHT22;9882;51.166;6.992;2023-11-19T10:58:28;12.90;99.90
19483;DHT22;9882;51.166;6.992;2023-11-19T11:01:02;12.90;99.90
19483;DHT22;9882;51.166;6.992;2023-11-19T11:03:39;12.90;99.90
19483;DHT22;9882;51.166;6.992;2023-11-19T11:06:09;13.00;99.90
19483;DHT22;9882;51.166;6.992;2023-11-19T11:08:39;12.80;99.90
19483;DHT22;9882;51.166;6.992;2023-11-19T11:11:10;12.80;99.90
19483;DHT22;9882;51.166;6.992;2023-11-19T11:13:42;12.80;99.90
19483;DHT22;9882;51.166;6.992;2023-11-19T11:16:12;12.90;99.90
19483;DHT22;9882;51.166;6.992;2023-11-19T11:18:42;13.00;99.90
19483;DHT22;9882;51.166;6.992;2023-11-19T11:21:15;12.80;99.90
19483;DHT22;9882;51.166;6.992;2023-11-19T11:24:10;12.80;99.90
19483;DHT22;9882;51.166;6.992;2023-11-19T11:29:45;12.70;99.90
19483;DHT22;9882;51.166;6.992;2023-11-19T11:32:25;12.80;99.90
19483;DHT22;9882;51.166;6.992;2023-11-19T11:35:12;12.80;99.90
19483;DHT22;9882;51.166;6.992;2023-11-19T11:37:46;12.90;99.90
19483;DHT22;9882;51.166;6.992;2023-11-19T11:40:31;12.80;99.90
19483;DHT22;9882;51.166;6.992;2023-11-19T11:43:01;12.90;99.90
19483;DHT22;9882;51.166;6.992;2023-11-19T11:45:35;12.70;99.90
19483;DHT22;9882;51.166;6.992;2023-11-19T11:48:15;12.90;99.90
19483;DHT22;9882;51.166;6.992;2023-11-19T11:50:52;13.00;99.90
19483;DHT22;9882;51.166;6.992;2023-11-19T11:53:22;12.80;99.90
19483;DHT22;9882;51.166;6.992;2023-11-19T11:56:09;12.80;99.90
19483;DHT22;9882;51.166;6.992;2023-11-19T11:58:40;13.00;99.90
19483;DHT22;9882;51.166;6.992;2023-11-19T12:01:15;13.00;99.90
19483;DHT22;9882;51.166;6.992;2023-11-19T12:03:50;12.80;99.90
19483;DHT22;9882;51.166;6.992;2023-11-19T12:06:21;12.90;99.90
19483;DHT22;9882;51.166;6.992;2023-11-19T12:08:50;13.20;99.90
19483;DHT22;9882;51.166;6.992;2023-11-19T12:11:20;13.10;99.90
19483;DHT22;9882;51.166;6.992;2023-11-19T12:13:56;13.00;99.90
19483;DHT22;9882;51.166;6.992;2023-11-19T12:16:26;13.20;99.90
19483;DHT22;9882;51.166;6.992;2023-11-19T12:18:56;13.20;99.90
19483;DHT22;9882;51.166;6.992;2023-11-19T12:21:31;13.30;99.90
19483;DHT22;9882;51.166;6.992;2023-11-19T12:24:00;13.30;99.90
19483;DHT22;9882;51.166;6.992;2023-11-19T12:26:36;13.40;99.90
19483;DHT22;9882;51.166;6.992;2023-11-19T12:29:06;13.20;99.90
19483;DHT22;9882;51.166;6.992;2023-11-19T12:31:36;13.20;99.90
19483;DHT22;9882;51.166;6.992;2023-11-19T12:34:11;13.20;99.90
19483;DHT22;9882;51.166;6.992;2023-11-19T12:36:40;13.10;99.90
19483;DHT22;9882;51.166;6.992;2023-11-19T12:39:12;13.20;99.90
19483;DHT22;9882;51.166;6.992;2023-11-19T12:41:53;13.30;99.90
19483;DHT22;9882;51.166;6.992;2023-11-19T12:44:23;13.30;99.90
19483;DHT22;9882;51.166;6.992;2023-11-19T12:47:02;13.20;99.90
19483;DHT22;9882;51.166;6.992;2023-11-19T12:49:32;13.10;99.90
19483;DHT22;9882;51.166;6.992;2023-11-19T12:52:00;13.00;99.90
19483;DHT22;9882;51.166;6.992;2023-11-19T12:54:33;13.10;99.90
19483;DHT22;9882;51.166;6.992;2023-11-19T12:57:02;13.10;99.90
19483;DHT22;9882;51.166;6.992;2023-11-19T12:59:33;13.00;99.90
19483;DHT22;9882;51.166;6.992;2023-11-19T13:02:02;13.10;99.90
19483;DHT22;9882;51.166;6.992;2023-11-19T13:04:33;12.90;99.90
19483;DHT22;9882;51.166;6.992;2023-11-19T13:07:02;12.90;99.90
19483;DHT22;9882;51.166;6.992;2023-11-19T13:09:32;13.00;99.90
19483;DHT22;9882;51.166;6.992;2023-11-19T13:12:12;13.10;99.90
19483;DHT22;9882;51.166;6.992;2023-11-19T13:14:43;13.10;99.90
19483;DHT22;9882;51.166;6.992;2023-11-19T13:17:14;13.10;99.90
19483;DHT22;9882;51.166;6.992;2023-11-19T13:19:43;13.20;99.90
19483;DHT22;9882;51.166;6.992;2023-11-19T13:22:11;13.20;99.90
19483;DHT22;9882;51.166;6.992;2023-11-19T13:24:40;13.20;99.90
19483;DHT22;9882;51.166;6.992;2023-11-19T13:27:09;13.40;99.90
19483;DHT22;9882;51.166;6.992;2023-11-19T13:29:38;13.50;99.90
19483;DHT22;9882;51.166;6.992;2023-11-19T13:32:08;13.40;99.90
19483;DHT22;9882;51.166;6.992;2023-11-19T13:34:37;13.70;99.90
19483;DHT22;9882;51.166;6.992;2023-11-19T13:37:06;13.80;99.90
19483;DHT22;9882;51.166;6.992;2023-11-19T13:39:35;13.60;99.90
19483;DHT22;9882;51.166;6.992;2023-11-19T13:42:04;13.70;99.90
19483;DHT22;9882;51.166;6.992;2023-11-19T13:44:35;13.70;99.90
19483;DHT22;9882;51.166;6.992;2023-11-19T13:47:04;13.50;99.90
19483;DHT22;9882;51.166;6.992;2023-11-19T13:49:34;13.40;99.90
19483;DHT22;9882;51.166;6.992;2023-11-19T13:52:03;13.50;99.90
19483;DHT22;9882;51.166;6.992;2023-11-19T13:54:31;13.60;99.90
19483;DHT22;9882;51.166;6.992;2023-11-19T13:57:00;13.30;99.90
19483;DHT22;9882;51.166;6.992;2023-11-19T13:59:31;13.40;99.90
19483;DHT22;9882;51.166;6.992;2023-11-19T14:01:59;13.50;99.90
19483;DHT22;9882;51.166;6.992;2023-11-19T14:04:28;13.60;99.90
19483;DHT22;9882;51.166;6.992;2023-11-19T14:06:58;13.40;99.90
19483;DHT22;9882;51.166;6.992;2023-11-19T14:09:26;13.60;99.90
19483;DHT22;9882;51.166;6.992;2023-11-19T14:11:56;13.30;99.90
19483;DHT22;9882;51.166;6.992;2023-11-19T14:14:24;13.20;99.90
19483;DHT22;9882;51.166;6.992;2023-11-19T14:16:53;13.30;99.90
19483;DHT22;9882;51.166;6.992;2023-11-19T14:19:39;13.30;99.90
19483;DHT22;9882;51.166;6.992;2023-11-19T14:22:09;13.30;99.90
19483;DHT22;9882;51.166;6.992;2023-11-19T14:24:38;13.40;99.90
19483;DHT22;9882;51.166;6.992;2023-11-19T14:27:10;13.00;99.90
19483;DHT22;9882;51.166;6.992;2023-11-19T14:29:39;13.20;99.90
19483;DHT22;9882;51.166;6.992;2023-11-19T14:32:08;12.60;99.90
19483;DHT22;9882;51.166;6.992;2023-11-19T14:34:36;12.70;99.90
19483;DHT22;9882;51.166;6.992;2023-11-19T14:37:05;12.50;99.90
19483;DHT22;9882;51.166;6.992;2023-11-19T14:39:35;12.60;99.90
19483;DHT22;9882;51.166;6.992;2023-11-19T14:42:04;13.00;99.90
19483;DHT22;9882;51.166;6.992;2023-11-19T14:44:33;12.90;99.90
19483;DHT22;9882;51.166;6.992;2023-11-19T14:47:01;12.50;99.90
19483;DHT22;9882;51.166;6.992;2023-11-19T14:49:30;12.70;99.90
19483;DHT22;9882;51.166;6.992;2023-11-19T14:51:58;12.70;99.90
19483;DHT22;9882;51.166;6.992;2023-11-19T14:54:30;13.00;99.90
19483;DHT22;9882;51.166;6.992;2023-11-19T14:57:00;12.70;99.90
19483;DHT22;9882;51.166;6.992;2023-11-19T14:59:28;12.60;99.90
19483;DHT22;9882;51.166;6.992;2023-11-19T15:01:57;12.60;99.90
19483;DHT22;9882;51.166;6.992;2023-11-19T15:04:27;13.00;99.90
19483;DHT22;9882;51.166;6.992;2023-11-19T15:06:56;12.70;99.90
19483;DHT22;9882;51.166;6.992;2023-11-19T15:09:26;12.50;99.90
19483;DHT22;9882;51.166;6.992;2023-11-19T15:11:54;12.60;99.90
19483;DHT22;9882;51.166;6.992;2023-11-19T15:14:26;12.50;99.90
19483;DHT22;9882;51.166;6.992;2023-11-19T15:16:56;12.80;99.90
19483;DHT22;9882;51.166;6.992;2023-11-19T15:19:25;12.60;99.90
19483;DHT22;9882;51.166;6.992;2023-11-19T15:21:54;12.30;99.90
19483;DHT22;9882;51.166;6.992;2023-11-19T15:24:23;12.40;99.90
19483;DHT22;9882;51.166;6.992;2023-11-19T15:26:52;12.30;99.90
19483;DHT22;9882;51.166;6.992;2023-11-19T15:29:41;12.30;99.90
19483;DHT22;9882;51.166;6.992;2023-11-19T15:32:09;12.60;99.90
19483;DHT22;9882;51.166;6.992;2023-11-19T15:34:38;12.40;99.90
19483;DHT22;9882;51.166;6.992;2023-11-19T15:37:08;12.20;99.90
19483;DHT22;9882;51.166;6.992;2023-11-19T15:39:40;12.60;99.90
19483;DHT22;9882;51.166;6.992;2023-11-19T15:42:09;12.30;99.90
19483;DHT22;9882;51.166;6.992;2023-11-19T15:44:39;12.60;99.90
19483;DHT22;9882;51.166;6.992;2023-11-19T15:47:13;12.30;99.90
19483;DHT22;9882;51.166;6.992;2023-11-19T15:49:45;12.00;99.90
19483;DHT22;9882;51.166;6.992;2023-11-19T15:52:16;12.00;99.90
19483;DHT22;9882;51.166;6.992;2023-11-19T15:54:44;12.50;99.90
19483;DHT22;9882;51.166;6.992;2023-11-19T15:57:15;12.40;99.90
19483;DHT22;9882;51.166;6.992;2023-11-19T15:59:44;12.30;99.90
19483;DHT22;9882;51.166;6.992;2023-11-19T16:02:14;12.20;99.90
19483;DHT22;9882;51.166;6.992;2023-11-19T16:04:46;12.20;99.90
19483;DHT22;9882;51.166;6.992;2023-11-19T16:07:17;12.20;99.90
19483;DHT22;9882;51.166;6.992;2023-11-19T16:09:47;11.90;99.90